sensor_id;sensor_type;location;lat;lon;timestamp;temperature;humidity
16114;DHT22;8161;-33.910;151.156;2023-04-30T00:02:58;17.90;99.90
16114;DHT22;8161;-33.910;151.156;2023-04-30T00:05:25;18.30;99.90
16114;DHT22;8161;-33.910;151.156;2023-04-30T00:07:53;17.90;99.90
16114;DHT22;8161;-33.910;151.156;2023-04-30T00:15:14;18.60;99.90
16114;DHT22;8161;-33.910;151.156;2023-04-30T00:17:41;18.30;99.90
16114;DHT22;8161;-33.910;151.156;2023-04-30T00:20:09;18.30;99.90
16114;DHT22;8161;-33.910;151.156;2023-04-30T00:22:36;18.50;99.90
16114;DHT22;8161;-33.910;151.156;2023-04-30T00:25:04;18.20;99.90
16114;DHT22;8161;-33.910;151.156;2023-04-30T00:27:32;18.00;99.90
16114;DHT22;8161;-33.910;151.156;2023-04-30T00:29:59;18.80;99.90
16114;DHT22;8161;-33.910;151.156;2023-04-30T00:32:26;17.70;99.90
16114;DHT22;8161;-33.910;151.156;2023-04-30T00:34:53;18.30;99.90
16114;DHT22;8161;-33.910;151.156;2023-04-30T00:37:21;18.70;99.90
16114;DHT22;8161;-33.910;151.156;2023-04-30T00:42:15;18.80;99.90
16114;DHT22;8161;-33.910;151.156;2023-04-30T00:44:42;18.40;99.90
16114;DHT22;8161;-33.910;151.156;2023-04-30T00:47:09;18.00;99.90
16114;DHT22;8161;-33.910;151.156;2023-04-30T00:52:04;18.80;99.90
16114;DHT22;8161;-33.910;151.156;2023-04-30T00:54:31;18.40;99.90
16114;DHT22;8161;-33.910;151.156;2023-04-30T00:56:59;18.30;99.90
16114;DHT22;8161;-33.910;151.156;2023-04-30T00:59:26;18.90;99.90
16114;DHT22;8161;-33.910;151.156;2023-04-30T01:01:55;19.00;99.90
16114;DHT22;8161;-33.910;151.156;2023-04-30T01:04:25;19.00;99.90
16114;DHT22;8161;-33.910;151.156;2023-04-30T01:06:52;18.80;99.90
16114;DHT22;8161;-33.910;151.156;2023-04-30T01:11:51;18.80;99.90
16114;DHT22;8161;-33.910;151.156;2023-04-30T01:14:37;18.70;99.90
16114;DHT22;8161;-33.910;151.156;2023-04-30T01:17:12;18.30;99.90
16114;DHT22;8161;-33.910;151.156;2023-04-30T01:19:45;19.00;99.90
16114;DHT22;8161;-33.910;151.156;2023-04-30T01:27:52;19.50;99.90
16114;DHT22;8161;-33.910;151.156;2023-04-30T01:30:23;19.00;99.90
16114;DHT22;8161;-33.910;151.156;2023-04-30T01:32:51;19.70;99.90
16114;DHT22;8161;-33.910;151.156;2023-04-30T01:35:18;19.00;99.90
16114;DHT22;8161;-33.910;151.156;2023-04-30T01:40:47;19.00;99.90
16114;DHT22;8161;-33.910;151.156;2023-04-30T01:43:54;19.40;99.90
16114;DHT22;8161;-33.910;151.156;2023-04-30T01:46:27;18.90;99.90
16114;DHT22;8161;-33.910;151.156;2023-04-30T01:51:43;18.60;99.90
16114;DHT22;8161;-33.910;151.156;2023-04-30T01:54:29;19.10;99.90
16114;DHT22;8161;-33.910;151.156;2023-04-30T01:59:34;19.50;99.90
16114;DHT22;8161;-33.910;151.156;2023-04-30T02:02:04;18.90;99.90
16114;DHT22;8161;-33.910;151.156;2023-04-30T02:04:31;19.30;99.90
16114;DHT22;8161;-33.910;151.156;2023-04-30T02:09:26;19.10;99.90
16114;DHT22;8161;-33.910;151.156;2023-04-30T02:11:53;18.50;99.90
16114;DHT22;8161;-33.910;151.156;2023-04-30T02:14:23;18.90;99.90
16114;DHT22;8161;-33.910;151.156;2023-04-30T02:16:50;19.00;99.90
16114;DHT22;8161;-33.910;151.156;2023-04-30T02:19:18;18.80;99.90
16114;DHT22;8161;-33.910;151.156;2023-04-30T02:24:12;19.00;99.90
16114;DHT22;8161;-33.910;151.156;2023-04-30T02:26:39;19.30;99.90
16114;DHT22;8161;-33.910;151.156;2023-04-30T02:29:06;19.00;99.90
16114;DHT22;8161;-33.910;151.156;2023-04-30T02:34:01;19.30;99.90
16114;DHT22;8161;-33.910;151.156;2023-04-30T02:36:28;19.60;99.90
16114;DHT22;8161;-33.910;151.156;2023-04-30T02:38:55;20.00;99.90
16114;DHT22;8161;-33.910;151.156;2023-04-30T02:41:22;19.80;99.90
16114;DHT22;8161;-33.910;151.156;2023-04-30T02:46:18;19.80;99.90
16114;DHT22;8161;-33.910;151.156;2023-04-30T02:48:45;20.10;99.90
16114;DHT22;8161;-33.910;151.156;2023-04-30T02:51:12;20.10;99.90
16114;DHT22;8161;-33.910;151.156;2023-04-30T03:13:21;20.80;99.90
16114;DHT22;8161;-33.910;151.156;2023-04-30T03:18:30;21.00;99.90
16114;DHT22;8161;-33.910;151.156;2023-04-30T03:20:57;20.80;99.90
16114;DHT22;8161;-33.910;151.156;2023-04-30T03:23:26;20.50;99.90
16114;DHT22;8161;-33.910;151.156;2023-04-30T03:28:21;20.70;99.90
16114;DHT22;8161;-33.910;151.156;2023-04-30T03:33:15;20.70;99.90
16114;DHT22;8161;-33.910;151.156;2023-04-30T03:35:43;20.50;99.90
16114;DHT22;8161;-33.910;151.156;2023-04-30T03:38:10;20.80;99.90
16114;DHT22;8161;-33.910;151.156;2023-04-30T03:40:37;21.00;99.90
16114;DHT22;8161;-33.910;151.156;2023-04-30T03:43:04;20.60;99.90
16114;DHT22;8161;-33.910;151.156;2023-04-30T03:45:32;21.00;99.90
16114;DHT22;8161;-33.910;151.156;2023-04-30T03:47:59;21.50;99.90
16114;DHT22;8161;-33.910;151.156;2023-04-30T03:52:53;20.80;99.90
16114;DHT22;8161;-33.910;151.156;2023-04-30T04:00:15;20.90;99.90
16114;DHT22;8161;-33.910;151.156;2023-04-30T04:02:42;21.00;99.90
16114;DHT22;8161;-33.910;151.156;2023-04-30T04:05:10;20.60;99.90
16114;DHT22;8161;-33.910;151.156;2023-04-30T04:07:37;21.00;99.90
16114;DHT22;8161;-33.910;151.156;2023-04-30T04:12:32;21.10;99.90
16114;DHT22;8161;-33.910;151.156;2023-04-30T04:14:59;20.70;99.90
16114;DHT22;8161;-33.910;151.156;2023-04-30T04:17:26;20.90;99.90
16114;DHT22;8161;-33.910;151.156;2023-04-30T04:19:53;21.00;99.90
16114;DHT22;8161;-33.910;151.156;2023-04-30T04:22:20;20.70;99.90
16114;DHT22;8161;-33.910;151.156;2023-04-30T04:24:48;21.30;99.90
16114;DHT22;8161;-33.910;151.156;2023-04-30T04:27:15;20.90;99.90
16114;DHT22;8161;-33.910;151.156;2023-04-30T04:29:43;21.20;99.90
16114;DHT22;8161;-33.910;151.156;2023-04-30T04:32:10;20.80;99.90
16114;DHT22;8161;-33.910;151.156;2023-04-30T04:34:37;21.20;99.90
16114;DHT22;8161;-33.910;151.156;2023-04-30T04:39:32;20.90;99.90
16114;DHT22;8161;-33.910;151.156;2023-04-30T04:46:57;21.20;99.90
16114;DHT22;8161;-33.910;151.156;2023-04-30T04:49:25;21.20;99.90
16114;DHT22;8161;-33.910;151.156;2023-04-30T04:54:19;21.20;99.90
16114;DHT22;8161;-33.910;151.156;2023-04-30T04:56:46;21.20;99.90
16114;DHT22;8161;-33.910;151.156;2023-04-30T05:04:08;21.30;99.90
16114;DHT22;8161;-33.910;151.156;2023-04-30T05:06:35;21.30;99.90
16114;DHT22;8161;-33.910;151.156;2023-04-30T05:09:02;21.20;99.90
16114;DHT22;8161;-33.910;151.156;2023-04-30T05:11:32;21.20;99.90
16114;DHT22;8161;-33.910;151.156;2023-04-30T05:16:26;21.10;99.90
16114;DHT22;8161;-33.910;151.156;2023-04-30T05:18:54;21.20;99.90
16114;DHT22;8161;-33.910;151.156;2023-04-30T05:28:43;20.90;99.90
16114;DHT22;8161;-33.910;151.156;2023-04-30T05:31:10;20.60;99.90
16114;DHT22;8161;-33.910;151.156;2023-04-30T05:33:38;21.00;99.90
16114;DHT22;8161;-33.910;151.156;2023-04-30T05:41:00;21.10;99.90
16114;DHT22;8161;-33.910;151.156;2023-04-30T05:43:27;21.10;99.90
16114;DHT22;8161;-33.910;151.156;2023-04-30T05:45:55;20.90;99.90
16114;DHT22;8161;-33.910;151.156;2023-04-30T05:48:22;20.80;99.90
16114;DHT22;8161;-33.910;151.156;2023-04-30T05:50:49;20.60;99.90
16114;DHT22;8161;-33.910;151.156;2023-04-30T05:53:16;20.60;99.90
16114;DHT22;8161;-33.910;151.156;2023-04-30T05:55:44;20.50;99.90
16114;DHT22;8161;-33.910;151.156;2023-04-30T05:58:11;20.50;99.90
16114;DHT22;8161;-33.910;151.156;2023-04-30T06:08:00;20.70;99.90
16114;DHT22;8161;-33.910;151.156;2023-04-30T06:10:27;20.20;99.90
16114;DHT22;8161;-33.910;151.156;2023-04-30T06:15:21;20.40;99.90
16114;DHT22;8161;-33.910;151.156;2023-04-30T06:22:43;20.30;99.90
16114;DHT22;8161;-33.910;151.156;2023-04-30T06:25:10;20.00;99.90
16114;DHT22;8161;-33.910;151.156;2023-04-30T06:27:37;19.90;99.90
16114;DHT22;8161;-33.910;151.156;2023-04-30T06:37:30;19.60;99.90
16114;DHT22;8161;-33.910;151.156;2023-04-30T06:40:04;19.80;99.90
16114;DHT22;8161;-33.910;151.156;2023-04-30T06:42:32;19.50;99.90
16114;DHT22;8161;-33.910;151.156;2023-04-30T06:45:02;19.80;99.90
16114;DHT22;8161;-33.910;151.156;2023-04-30T06:50:04;19.80;99.90
16114;DHT22;8161;-33.910;151.156;2023-04-30T06:52:31;19.70;99.90
16114;DHT22;8161;-33.910;151.156;2023-04-30T06:54:58;19.10;99.90
16114;DHT22;8161;-33.910;151.156;2023-04-30T06:57:26;19.70;99.90
16114;DHT22;8161;-33.910;151.156;2023-04-30T07:02:22;19.40;99.90
16114;DHT22;8161;-33.910;151.156;2023-04-30T07:04:49;19.30;99.90
16114;DHT22;8161;-33.910;151.156;2023-04-30T07:07:16;20.00;99.90
16114;DHT22;8161;-33.910;151.156;2023-04-30T07:09:43;19.00;99.90
16114;DHT22;8161;-33.910;151.156;2023-04-30T07:12:10;19.00;99.90
16114;DHT22;8161;-33.910;151.156;2023-04-30T07:14:39;19.00;99.90
16114;DHT22;8161;-33.910;151.156;2023-04-30T07:19:33;18.80;99.90
16114;DHT22;8161;-33.910;151.156;2023-04-30T07:22:01;19.00;99.90
16114;DHT22;8161;-33.910;151.156;2023-04-30T07:24:28;19.10;99.90
16114;DHT22;8161;-33.910;151.156;2023-04-30T07:29:24;19.30;99.90
16114;DHT22;8161;-33.910;151.156;2023-04-30T07:31:51;19.40;99.90
16114;DHT22;8161;-33.910;151.156;2023-04-30T07:34:18;19.10;99.90
16114;DHT22;8161;-33.910;151.156;2023-04-30T07:36:49;18.80;99.90
16114;DHT22;8161;-33.910;151.156;2023-04-30T07:39:16;19.50;99.90
16114;DHT22;8161;-33.910;151.156;2023-04-30T07:44:10;18.80;99.90
16114;DHT22;8161;-33.910;151.156;2023-04-30T07:46:38;18.90;99.90
16114;DHT22;8161;-33.910;151.156;2023-04-30T07:49:05;19.20;99.90
16114;DHT22;8161;-33.910;151.156;2023-04-30T07:54:00;18.80;99.90
16114;DHT22;8161;-33.910;151.156;2023-04-30T07:56:27;18.60;99.90
16114;DHT22;8161;-33.910;151.156;2023-04-30T07:58:54;18.70;99.90
16114;DHT22;8161;-33.910;151.156;2023-04-30T08:01:22;19.30;99.90
16114;DHT22;8161;-33.910;151.156;2023-04-30T08:03:49;19.00;99.90
16114;DHT22;8161;-33.910;151.156;2023-04-30T08:06:17;19.00;99.90
16114;DHT22;8161;-33.910;151.156;2023-04-30T08:08:44;18.80;99.90
16114;DHT22;8161;-33.910;151.156;2023-04-30T08:11:11;18.40;99.90
16114;DHT22;8161;-33.910;151.156;2023-04-30T08:25:59;18.70;99.90
16114;DHT22;8161;-33.910;151.156;2023-04-30T08:30:53;18.90;99.90
16114;DHT22;8161;-33.910;151.156;2023-04-30T08:33:21;18.80;99.90
16114;DHT22;8161;-33.910;151.156;2023-04-30T08:35:48;18.30;99.90
16114;DHT22;8161;-33.910;151.156;2023-04-30T08:41:09;18.60;99.90
16114;DHT22;8161;-33.910;151.156;2023-04-30T08:46:02;18.20;99.90
16114;DHT22;8161;-33.910;151.156;2023-04-30T08:48:31;18.30;99.90
16114;DHT22;8161;-33.910;151.156;2023-04-30T08:51:02;18.20;99.90
16114;DHT22;8161;-33.910;151.156;2023-04-30T08:53:30;18.50;99.90
16114;DHT22;8161;-33.910;151.156;2023-04-30T08:58:27;18.30;99.90
16114;DHT22;8161;-33.910;151.156;2023-04-30T09:00:57;18.30;99.90
16114;DHT22;8161;-33.910;151.156;2023-04-30T09:03:25;17.90;99.90
16114;DHT22;8161;-33.910;151.156;2023-04-30T09:08:43;18.10;99.90
16114;DHT22;8161;-33.910;151.156;2023-04-30T09:11:26;17.80;99.90
16114;DHT22;8161;-33.910;151.156;2023-04-30T09:14:01;18.00;99.90
16114;DHT22;8161;-33.910;151.156;2023-04-30T09:16:43;17.60;99.90
16114;DHT22;8161;-33.910;151.156;2023-04-30T09:19:25;18.00;99.90
16114;DHT22;8161;-33.910;151.156;2023-04-30T09:21:52;18.10;99.90
16114;DHT22;8161;-33.910;151.156;2023-04-30T09:24:19;18.10;99.90
16114;DHT22;8161;-33.910;151.156;2023-04-30T09:26:47;17.80;99.90
16114;DHT22;8161;-33.910;151.156;2023-04-30T09:29:15;17.70;99.90
16114;DHT22;8161;-33.910;151.156;2023-04-30T09:31:44;18.10;99.90
16114;DHT22;8161;-33.910;151.156;2023-04-30T09:34:12;17.90;99.90
16114;DHT22;8161;-33.910;151.156;2023-04-30T09:36:54;18.00;99.90
16114;DHT22;8161;-33.910;151.156;2023-04-30T09:39:22;18.10;99.90
16114;DHT22;8161;-33.910;151.156;2023-04-30T09:42:00;17.60;99.90
16114;DHT22;8161;-33.910;151.156;2023-04-30T09:47:03;17.60;99.90
16114;DHT22;8161;-33.910;151.156;2023-04-30T09:49:36;17.90;99.90
16114;DHT22;8161;-33.910;151.156;2023-04-30T09:52:04;17.90;99.90
16114;DHT22;8161;-33.910;151.156;2023-04-30T09:54:32;17.50;99.90
16114;DHT22;8161;-33.910;151.156;2023-04-30T09:57:01;17.20;99.90
16114;DHT22;8161;-33.910;151.156;2023-04-30T09:59:33;16.90;99.90
16114;DHT22;8161;-33.910;151.156;2023-04-30T10:02:06;16.90;99.90
16114;DHT22;8161;-33.910;151.156;2023-04-30T10:04:38;17.00;99.90
16114;DHT22;8161;-33.910;151.156;2023-04-30T10:07:19;16.80;99.90
16114;DHT22;8161;-33.910;151.156;2023-04-30T10:09:50;17.10;99.90
16114;DHT22;8161;-33.910;151.156;2023-04-30T10:15:24;16.80;99.90
16114;DHT22;8161;-33.910;151.156;2023-04-30T10:18:06;17.20;99.90
16114;DHT22;8161;-33.910;151.156;2023-04-30T10:20:38;17.30;99.90
16114;DHT22;8161;-33.910;151.156;2023-04-30T10:23:06;17.20;99.90
16114;DHT22;8161;-33.910;151.156;2023-04-30T10:25:34;17.30;99.90
16114;DHT22;8161;-33.910;151.156;2023-04-30T10:28:01;17.20;99.90
16114;DHT22;8161;-33.910;151.156;2023-04-30T10:30:29;16.80;99.90
16114;DHT22;8161;-33.910;151.156;2023-04-30T10:33:12;16.80;99.90
16114;DHT22;8161;-33.910;151.156;2023-04-30T10:38:25;17.00;99.90
16114;DHT22;8161;-33.910;151.156;2023-04-30T10:41:00;16.70;99.90
16114;DHT22;8161;-33.910;151.156;2023-04-30T10:43:30;16.90;99.90
16114;DHT22;8161;-33.910;151.156;2023-04-30T10:45:58;16.50;99.90
16114;DHT22;8161;-33.910;151.156;2023-04-30T10:48:26;17.00;99.90
16114;DHT22;8161;-33.910;151.156;2023-04-30T10:50:58;16.50;99.90
16114;DHT22;8161;-33.910;151.156;2023-04-30T10:53:26;17.10;99.90
16114;DHT22;8161;-33.910;151.156;2023-04-30T10:56:01;16.80;99.90
16114;DHT22;8161;-33.910;151.156;2023-04-30T10:58:38;16.80;99.90
16114;DHT22;8161;-33.910;151.156;2023-04-30T11:03:37;16.50;99.90
16114;DHT22;8161;-33.910;151.156;2023-04-30T11:06:13;16.60;99.90
16114;DHT22;8161;-33.910;151.156;2023-04-30T11:08:44;16.70;99.90
16114;DHT22;8161;-33.910;151.156;2023-04-30T11:11:17;16.30;99.90
16114;DHT22;8161;-33.910;151.156;2023-04-30T11:13:59;16.80;99.90
16114;DHT22;8161;-33.910;151.156;2023-04-30T11:16:30;16.30;99.90
16114;DHT22;8161;-33.910;151.156;2023-04-30T11:21:33;16.00;99.90
16114;DHT22;8161;-33.910;151.156;2023-04-30T11:24:03;16.20;99.90
16114;DHT22;8161;-33.910;151.156;2023-04-30T11:29:33;16.20;99.90
16114;DHT22;8161;-33.910;151.156;2023-04-30T11:34:28;16.10;99.90
16114;DHT22;8161;-33.910;151.156;2023-04-30T11:36:58;16.10;99.90
16114;DHT22;8161;-33.910;151.156;2023-04-30T11:39:28;16.10;99.90
16114;DHT22;8161;-33.910;151.156;2023-04-30T11:41:58;16.30;99.90
16114;DHT22;8161;-33.910;151.156;2023-04-30T11:44:28;16.20;99.90
16114;DHT22;8161;-33.910;151.156;2023-04-30T11:49:23;16.00;99.90
16114;DHT22;8161;-33.910;151.156;2023-04-30T11:51:50;16.00;99.90
16114;DHT22;8161;-33.910;151.156;2023-04-30T11:54:20;16.00;99.90
16114;DHT22;8161;-33.910;151.156;2023-04-30T11:56:48;16.50;99.90
16114;DHT22;8161;-33.910;151.156;2023-04-30T11:59:16;15.70;99.90
16114;DHT22;8161;-33.910;151.156;2023-04-30T12:01:43;16.30;99.90
16114;DHT22;8161;-33.910;151.156;2023-04-30T12:04:10;16.10;99.90
16114;DHT22;8161;-33.910;151.156;2023-04-30T12:06:39;15.80;99.90
16114;DHT22;8161;-33.910;151.156;2023-04-30T12:09:07;16.10;99.90
16114;DHT22;8161;-33.910;151.156;2023-04-30T12:11:37;16.00;99.90
16114;DHT22;8161;-33.910;151.156;2023-04-30T12:14:08;16.10;99.90
16114;DHT22;8161;-33.910;151.156;2023-04-30T12:19:11;16.30;99.90
16114;DHT22;8161;-33.910;151.156;2023-04-30T12:21:40;15.90;99.90
16114;DHT22;8161;-33.910;151.156;2023-04-30T12:24:11;15.90;99.90
16114;DHT22;8161;-33.910;151.156;2023-04-30T12:26:39;15.50;99.90
16114;DHT22;8161;-33.910;151.156;2023-04-30T12:29:20;15.70;99.90
16114;DHT22;8161;-33.910;151.156;2023-04-30T12:31:49;15.80;99.90
16114;DHT22;8161;-33.910;151.156;2023-04-30T12:34:20;16.00;99.90
16114;DHT22;8161;-33.910;151.156;2023-04-30T12:36:47;16.00;99.90
16114;DHT22;8161;-33.910;151.156;2023-04-30T12:39:15;15.70;99.90
16114;DHT22;8161;-33.910;151.156;2023-04-30T12:41:44;16.00;99.90
16114;DHT22;8161;-33.910;151.156;2023-04-30T12:46:41;15.60;99.90
16114;DHT22;8161;-33.910;151.156;2023-04-30T12:49:08;15.60;99.90
16114;DHT22;8161;-33.910;151.156;2023-04-30T12:51:37;15.60;99.90
16114;DHT22;8161;-33.910;151.156;2023-04-30T12:54:07;15.80;99.90
16114;DHT22;8161;-33.910;151.156;2023-04-30T12:56:37;15.10;99.90
16114;DHT22;8161;-33.910;151.156;2023-04-30T12:59:14;15.30;99.90
16114;DHT22;8161;-33.910;151.156;2023-04-30T13:01:47;15.60;99.90
16114;DHT22;8161;-33.910;151.156;2023-04-30T13:04:14;15.50;99.90
16114;DHT22;8161;-33.910;151.156;2023-04-30T13:06:42;15.60;99.90
16114;DHT22;8161;-33.910;151.156;2023-04-30T13:09:09;15.10;99.90
16114;DHT22;8161;-33.910;151.156;2023-04-30T13:11:38;15.60;99.90
16114;DHT22;8161;-33.910;151.156;2023-04-30T13:14:05;15.30;99.90
16114;DHT22;8161;-33.910;151.156;2023-04-30T13:16:32;15.60;99.90
16114;DHT22;8161;-33.910;151.156;2023-04-30T13:19:00;15.20;99.90
16114;DHT22;8161;-33.910;151.156;2023-04-30T13:21:27;15.40;99.90
16114;DHT22;8161;-33.910;151.156;2023-04-30T13:26:22;16.50;99.90
16114;DHT22;8161;-33.910;151.156;2023-04-30T13:28:49;15.40;99.90
16114;DHT22;8161;-33.910;151.156;2023-04-30T13:33:44;15.40;99.90
16114;DHT22;8161;-33.910;151.156;2023-04-30T13:36:11;14.90;99.90
16114;DHT22;8161;-33.910;151.156;2023-04-30T13:38:38;15.00;99.90
16114;DHT22;8161;-33.910;151.156;2023-04-30T13:41:07;15.00;99.90
16114;DHT22;8161;-33.910;151.156;2023-04-30T13:43:34;15.20;99.90
16114;DHT22;8161;-33.910;151.156;2023-04-30T13:46:04;14.90;99.90
16114;DHT22;8161;-33.910;151.156;2023-04-30T13:48:31;15.20;99.90
16114;DHT22;8161;-33.910;151.156;2023-04-30T13:50:59;15.20;99.90
16114;DHT22;8161;-33.910;151.156;2023-04-30T13:53:27;15.10;99.90
16114;DHT22;8161;-33.910;151.156;2023-04-30T13:55:54;15.00;99.90
16114;DHT22;8161;-33.910;151.156;2023-04-30T13:58:25;14.70;99.90
16114;DHT22;8161;-33.910;151.156;2023-04-30T14:00:53;15.50;99.90
16114;DHT22;8161;-33.910;151.156;2023-04-30T14:03:26;15.50;99.90
16114;DHT22;8161;-33.910;151.156;2023-04-30T14:05:54;15.10;99.90
16114;DHT22;8161;-33.910;151.156;2023-04-30T14:08:21;15.20;99.90
16114;DHT22;8161;-33.910;151.156;2023-04-30T14:10:48;15.40;99.90
16114;DHT22;8161;-33.910;151.156;2023-04-30T14:13:15;15.20;99.90
16114;DHT22;8161;-33.910;151.156;2023-04-30T14:15:43;15.30;99.90
16114;DHT22;8161;-33.910;151.156;2023-04-30T14:18:10;14.70;99.90
16114;DHT22;8161;-33.910;151.156;2023-04-30T14:20:38;15.50;99.90
16114;DHT22;8161;-33.910;151.156;2023-04-30T14:23:06;15.40;99.90
16114;DHT22;8161;-33.910;151.156;2023-04-30T14:25:34;15.10;99.90
16114;DHT22;8161;-33.910;151.156;2023-04-30T14:28:01;15.20;99.90
16114;DHT22;8161;-33.910;151.156;2023-04-30T14:30:28;15.40;99.90
16114;DHT22;8161;-33.910;151.156;2023-04-30T14:32:58;15.50;99.90
16114;DHT22;8161;-33.910;151.156;2023-04-30T14:35:25;14.80;99.90
16114;DHT22;8161;-33.910;151.156;2023-04-30T14:40:20;14.90;99.90
16114;DHT22;8161;-33.910;151.156;2023-04-30T14:42:47;14.60;99.90
16114;DHT22;8161;-33.910;151.156;2023-04-30T14:45:15;14.60;99.90
16114;DHT22;8161;-33.910;151.156;2023-04-30T14:47:43;14.80;99.90
16114;DHT22;8161;-33.910;151.156;2023-04-30T14:50:10;14.90;99.90
16114;DHT22;8161;-33.910;151.156;2023-04-30T14:52:40;14.80;99.90
16114;DHT22;8161;-33.910;151.156;2023-04-30T14:55:08;15.20;99.90
16114;DHT22;8161;-33.910;151.156;2023-04-30T15:00:03;14.60;99.90
16114;DHT22;8161;-33.910;151.156;2023-04-30T15:02:32;14.80;99.90
16114;DHT22;8161;-33.910;151.156;2023-04-30T15:04:59;14.60;99.90
16114;DHT22;8161;-33.910;151.156;2023-04-30T15:07:26;14.50;99.90
16114;DHT22;8161;-33.910;151.156;2023-04-30T15:09:57;14.60;99.90
16114;DHT22;8161;-33.910;151.156;2023-04-30T15:12:24;15.00;99.90
16114;DHT22;8161;-33.910;151.156;2023-04-30T15:14:51;14.80;99.90
16114;DHT22;8161;-33.910;151.156;2023-04-30T15:17:24;14.70;99.90
16114;DHT22;8161;-33.910;151.156;2023-04-30T15:19:52;14.80;99.90
16114;DHT22;8161;-33.910;151.156;2023-04-30T15:22:21;14.40;99.90
16114;DHT22;8161;-33.910;151.156;2023-04-30T15:24:49;15.20;99.90
16114;DHT22;8161;-33.910;151.156;2023-04-30T15:27:16;14.30;99.90
16114;DHT22;8161;-33.910;151.156;2023-04-30T15:29:44;14.80;99.90
16114;DHT22;8161;-33.910;151.156;2023-04-30T15:32:12;15.00;99.90
16114;DHT22;8161;-33.910;151.156;2023-04-30T15:34:39;14.50;99.90
16114;DHT22;8161;-33.910;151.156;2023-04-30T15:37:09;14.20;99.90
16114;DHT22;8161;-33.910;151.156;2023-04-30T15:39:37;15.00;99.90
16114;DHT22;8161;-33.910;151.156;2023-04-30T15:42:05;14.80;99.90
16114;DHT22;8161;-33.910;151.156;2023-04-30T15:44:32;14.50;99.90
16114;DHT22;8161;-33.910;151.156;2023-04-30T15:47:00;14.50;99.90
16114;DHT22;8161;-33.910;151.156;2023-04-30T15:49:27;14.60;99.90
16114;DHT22;8161;-33.910;151.156;2023-04-30T15:51:54;15.00;99.90
16114;DHT22;8161;-33.910;151.156;2023-04-30T15:54:22;15.00;99.90
16114;DHT22;8161;-33.910;151.156;2023-04-30T15:56:49;14.40;99.90
16114;DHT22;8161;-33.910;151.156;2023-04-30T16:01:44;14.40;99.90
16114;DHT22;8161;-33.910;151.156;2023-04-30T16:04:11;14.20;99.90
16114;DHT22;8161;-33.910;151.156;2023-04-30T16:06:38;14.70;99.90
16114;DHT22;8161;-33.910;151.156;2023-04-30T16:09:06;14.40;99.90
16114;DHT22;8161;-33.910;151.156;2023-04-30T16:11:34;14.50;99.90
16114;DHT22;8161;-33.910;151.156;2023-04-30T16:16:32;14.40;99.90
16114;DHT22;8161;-33.910;151.156;2023-04-30T16:18:59;14.00;99.90
16114;DHT22;8161;-33.910;151.156;2023-04-30T16:21:27;14.10;99.90
16114;DHT22;8161;-33.910;151.156;2023-04-30T16:23:54;14.30;99.90
16114;DHT22;8161;-33.910;151.156;2023-04-30T16:26:23;14.20;99.90
16114;DHT22;8161;-33.910;151.156;2023-04-30T16:28:51;14.10;99.90
16114;DHT22;8161;-33.910;151.156;2023-04-30T16:31:19;14.60;99.90
16114;DHT22;8161;-33.910;151.156;2023-04-30T16:33:52;14.20;99.90
16114;DHT22;8161;-33.910;151.156;2023-04-30T16:36:20;14.10;99.90
16114;DHT22;8161;-33.910;151.156;2023-04-30T16:38:49;14.30;99.90
16114;DHT22;8161;-33.910;151.156;2023-04-30T16:41:17;13.90;99.90
16114;DHT22;8161;-33.910;151.156;2023-04-30T16:43:47;13.80;99.90
16114;DHT22;8161;-33.910;151.156;2023-04-30T16:48:41;14.50;99.90
16114;DHT22;8161;-33.910;151.156;2023-04-30T16:51:09;14.10;99.90
16114;DHT22;8161;-33.910;151.156;2023-04-30T16:53:39;13.90;99.90
16114;DHT22;8161;-33.910;151.156;2023-04-30T16:56:07;13.90;99.90
16114;DHT22;8161;-33.910;151.156;2023-04-30T16:58:34;14.10;99.90
16114;DHT22;8161;-33.910;151.156;2023-04-30T17:01:01;14.20;99.90
16114;DHT22;8161;-33.910;151.156;2023-04-30T17:03:29;14.30;99.90
16114;DHT22;8161;-33.910;151.156;2023-04-30T17:06:02;14.10;99.90
16114;DHT22;8161;-33.910;151.156;2023-04-30T17:08:31;13.90;99.90
16114;DHT22;8161;-33.910;151.156;2023-04-30T17:10:58;13.70;99.90
16114;DHT22;8161;-33.910;151.156;2023-04-30T17:13:25;13.60;99.90
16114;DHT22;8161;-33.910;151.156;2023-04-30T17:15:52;14.20;99.90
16114;DHT22;8161;-33.910;151.156;2023-04-30T17:18:25;14.10;99.90
16114;DHT22;8161;-33.910;151.156;2023-04-30T17:20:52;13.90;99.90
16114;DHT22;8161;-33.910;151.156;2023-04-30T17:23:19;13.80;99.90
16114;DHT22;8161;-33.910;151.156;2023-04-30T17:25:47;13.60;99.90
16114;DHT22;8161;-33.910;151.156;2023-04-30T17:28:14;14.10;99.90
16114;DHT22;8161;-33.910;151.156;2023-04-30T17:30:42;13.90;99.90
16114;DHT22;8161;-33.910;151.156;2023-04-30T17:33:10;13.60;99.90
16114;DHT22;8161;-33.910;151.156;2023-04-30T17:35:37;13.90;99.90
16114;DHT22;8161;-33.910;151.156;2023-04-30T17:38:05;14.20;99.90
16114;DHT22;8161;-33.910;151.156;2023-04-30T17:40:32;13.90;99.90
16114;DHT22;8161;-33.910;151.156;2023-04-30T17:42:59;13.90;99.90
16114;DHT22;8161;-33.910;151.156;2023-04-30T17:45:29;14.10;99.90
16114;DHT22;8161;-33.910;151.156;2023-04-30T17:47:57;14.00;99.90
16114;DHT22;8161;-33.910;151.156;2023-04-30T17:50:24;13.60;99.90
16114;DHT22;8161;-33.910;151.156;2023-04-30T17:52:54;14.00;99.90
16114;DHT22;8161;-33.910;151.156;2023-04-30T17:55:25;13.60;99.90
16114;DHT22;8161;-33.910;151.156;2023-04-30T17:57:53;14.10;99.90
16114;DHT22;8161;-33.910;151.156;2023-04-30T18:00:20;13.70;99.90
16114;DHT22;8161;-33.910;151.156;2023-04-30T18:02:48;13.50;99.90
16114;DHT22;8161;-33.910;151.156;2023-04-30T18:05:15;13.80;99.90
16114;DHT22;8161;-33.910;151.156;2023-04-30T18:07:45;13.40;99.90
16114;DHT22;8161;-33.910;151.156;2023-04-30T18:10:13;14.20;99.90
16114;DHT22;8161;-33.910;151.156;2023-04-30T18:12:40;14.10;99.90
16114;DHT22;8161;-33.910;151.156;2023-04-30T18:15:07;13.50;99.90
16114;DHT22;8161;-33.910;151.156;2023-04-30T18:17:35;14.10;99.90
16114;DHT22;8161;-33.910;151.156;2023-04-30T18:20:02;13.60;99.90
16114;DHT22;8161;-33.910;151.156;2023-04-30T18:22:30;14.00;99.90
16114;DHT22;8161;-33.910;151.156;2023-04-30T18:24:57;14.20;99.90
16114;DHT22;8161;-33.910;151.156;2023-04-30T18:27:25;14.10;99.90
16114;DHT22;8161;-33.910;151.156;2023-04-30T18:32:22;13.70;99.90
16114;DHT22;8161;-33.910;151.156;2023-04-30T18:34:53;14.00;99.90
16114;DHT22;8161;-33.910;151.156;2023-04-30T18:37:24;13.90;99.90
16114;DHT22;8161;-33.910;151.156;2023-04-30T18:42:19;13.50;99.90
16114;DHT22;8161;-33.910;151.156;2023-04-30T18:44:46;13.60;99.90
16114;DHT22;8161;-33.910;151.156;2023-04-30T18:47:13;13.80;99.90